Stormwatcher's Retreat Logo




                  Temp     Hi    Low   Out    Dew  Wind  Wind   Wind    Hi    Hi   Wind   Heat    THW   THSW                Rain  Solar   Solar Hi Solar   UV    UV    Hi     Heat    Cool    In     In    In     In     In   In Air          Wind  Wind    ISS   Arc.
  Date    Time     Out   Temp   Temp   Hum    Pt. Speed   Dir    Run Speed   Dir  Chill  Index  Index  Index   Bar    Rain  Rate   Rad.  Energy    Rad.  Index  Dose   UV     D-D     D-D    Temp   Hum    Dew   Heat    EMC Density     ET   Samp   Tx   Recept  Int.
------------------------------------------------------------------------------------------------------------------------------------------------------------------------------------------------------------------------------------------------------------------------
 4/21/18 12:10a   51.8   51.9   51.8    89   48.7  10.0     N   1.67  17.0     N   47.4   52.0   47.6   44.8  30.314  0.00  0.00     0     0.00      0     0.0  0.00   0.0   0.092   0.000   69.9    47   48.7   67.9   8.75  .0751    0.000   212    5    100.0   10 
 4/21/18 12:20a   51.8   51.8   51.8    89   48.7  10.0     N   1.67  15.0     N   47.4   52.0   47.6   44.8  30.313  0.00  0.00     0     0.00      0     0.0  0.00   0.0   0.092   0.000   69.9    47   48.7   67.9   8.75  .0751    0.000   211    5    100.0   10 
 4/21/18 12:30a   51.7   51.8   51.7    88   48.3  10.0     N   1.67  18.0     N   47.3   51.8   47.4   44.6  30.312  0.00  0.00     0     0.00      0     0.0  0.00   0.0   0.092   0.000   69.9    47   48.7   67.9   8.75  .0751    0.000   210    5    100.0   10 
 4/21/18 12:40a   51.7   51.8   51.6    89   48.6  10.0     N   1.67  16.0     N   47.3   51.9   47.5   44.7  30.316  0.00  0.00     0     0.00      0     0.0  0.00   0.0   0.092   0.000   69.9    47   48.7   67.9   8.75  .0751    0.000   212    5    100.0   10 
 4/21/18 12:50a   51.8   51.8   51.7    89   48.7  10.0     N   1.67  16.0     N   47.4   52.0   47.6   44.8  30.318  0.00  0.00     0     0.00      0     0.0  0.00   0.0   0.092   0.000   69.9    47   48.7   67.9   8.75  .0751    0.000   213    5    100.0   10 
 4/21/18  1:00a   51.6   51.8   51.6    89   48.5   9.0     N   1.50  19.0     N   47.8   51.8   48.0   45.1  30.319  0.00  0.00     0     0.00      0     0.0  0.00   0.0   0.093   0.000   69.9    47   48.7   67.9   8.75  .0751    0.001   209    5    100.0   10 
 4/21/18  1:10a   51.0   51.6   51.0    89   47.9  11.0     N   1.83  17.0     N   45.9   51.2   46.1   43.4  30.320  0.00  0.00     0     0.00      0     0.0  0.00   0.0   0.097   0.000   69.9    47   48.7   67.9   8.75  .0751    0.000   213    5    100.0   10 
 4/21/18  1:20a   50.8   51.2   50.8    90   48.0  10.0     N   1.67  17.0     N   46.3   51.0   46.5   43.7  30.322  0.00  0.00     0     0.00      0     0.0  0.00   0.0   0.099   0.000   69.9    47   48.7   67.9   8.75  .0751    0.000   212    5    100.0   10 
 4/21/18  1:30a   50.8   50.9   50.6    91   48.3  11.0     N   1.83  18.0     N   45.7   51.1   46.0   43.3  30.325  0.00  0.00     0     0.00      0     0.0  0.00   0.0   0.099   0.000   69.8    47   48.7   67.9   8.75  .0751    0.000   211    5    100.0   10 
 4/21/18  1:40a   50.7   51.0   50.6    91   48.2  10.0     N   1.67  17.0     N   46.1   51.0   46.4   43.6  30.326  0.00  0.00     0     0.00      0     0.0  0.00   0.0   0.099   0.000   69.9    47   48.7   67.9   8.75  .0751    0.000   212    5    100.0   10 
 4/21/18  1:50a   50.6   50.9   50.4    92   48.4  12.0     N   2.00  21.0     N   45.0   50.9   45.3   42.7  30.327  0.00  0.00     0     0.00      0     0.0  0.00   0.0   0.100   0.000   69.8    47   48.7   67.9   8.75  .0751    0.000   213    5    100.0   10 
 4/21/18  2:00a   50.5   50.6   50.4    93   48.6  14.0     N   2.33  22.0     N   44.1   50.9   44.5   42.0  30.328  0.00  0.00     0     0.00      0     0.0  0.00   0.0   0.101   0.000   69.8    47   48.7   67.9   8.75  .0751    0.001   212    5    100.0   10 
 4/21/18  2:10a   50.3   50.5   50.3    93   48.4  12.0     N   2.00  22.0     N   44.6   50.7   45.0   42.4  30.329  0.00  0.00     0     0.00      0     0.0  0.00   0.0   0.102   0.000   69.8    47   48.7   67.9   8.75  .0751    0.000   211    5    100.0   10 
 4/21/18  2:20a   50.0   50.3   49.9    93   48.1  11.0     N   1.83  19.0     N   44.8   50.4   45.2   42.5  30.333  0.00  0.00     0     0.00      0     0.0  0.00   0.0   0.104   0.000   69.8    47   48.7   67.9   8.75  .0751    0.000   211    5    100.0   10 
 4/21/18  2:30a   50.2   50.2   49.9    94   48.5  11.0     N   1.83  16.0     N   45.0   50.6   45.4   42.7  30.335  0.01  0.00     0     0.00      0     0.0  0.00   0.0   0.103   0.000   69.8    47   48.7   67.9   8.75  .0751    0.000   213    5    100.0   10 
 4/21/18  2:40a   50.3   50.3   50.2    94   48.6  11.0     N   1.83  17.0     N   45.1   50.7   45.5   42.8  30.331  0.00  0.00     0     0.00      0     0.0  0.00   0.0   0.102   0.000   69.7    47   48.6   67.8   8.76  .0751    0.000   210    5    100.0   10 
 4/21/18  2:50a   50.2   50.5   50.2    94   48.5  11.0     N   1.83  18.0     N   45.0   50.6   45.4   42.7  30.332  0.00  0.00     0     0.00      0     0.0  0.00   0.0   0.103   0.000   69.7    47   48.6   67.8   8.76  .0751    0.000   211    5    100.0   10 
 4/21/18  3:00a   50.5   50.5   50.2    95   49.1  13.0     N   2.17  20.0     N   44.5   51.0   45.0   42.5  30.333  0.00  0.00     0     0.00      0     0.0  0.00   0.0   0.101   0.000   69.7    47   48.6   67.8   8.76  .0751    0.001   211    5    100.0   10 
 4/21/18  3:10a   50.4   50.5   50.4    95   49.0  12.0     N   2.00  20.0     N   44.7   50.9   45.2   42.7  30.335  0.00  0.00     0     0.00      0     0.0  0.00   0.0   0.101   0.000   69.6    47   48.5   67.7   8.76  .0752    0.000   211    5    100.0   10 
 4/21/18  3:20a   50.3   50.4   50.3    95   48.9  10.0     N   1.67  17.0     N   45.7   50.8   46.2   43.4  30.346  0.01  0.00     0     0.00      0     0.0  0.00   0.0   0.102   0.000   69.6    47   48.5   67.7   8.76  .0752    0.000   211    5    100.0   10 
 4/21/18  3:30a   49.1   50.3   49.1    94   47.4   4.0     N   0.67  13.0     N   47.8   49.6   48.3   45.1  30.350  0.03  0.35     0     0.00      0     0.0  0.00   0.0   0.110   0.000   69.5    47   48.4   67.6   8.76  .0752    0.000   212    5    100.0   10 
 4/21/18  3:40a   49.4   49.4   49.0    95   48.0   6.0     N   1.00  12.0     N   47.0   49.9   47.5   44.3  30.355  0.00  0.05     0     0.00      0     0.0  0.00   0.0   0.108   0.000   69.5    47   48.4   67.6   8.76  .0752    0.000   212    5    100.0   10 
 4/21/18  3:50a   49.3   49.4   49.2    94   47.6   8.0     N   1.33  13.0     N   45.7   49.8   46.2   43.2  30.358  0.00  0.00     0     0.00      0     0.0  0.00   0.0   0.109   0.000   69.5    47   48.4   67.6   8.76  .0752    0.000   211    5    100.0   10 
 4/21/18  4:00a   49.1   49.4   49.1    94   47.4   6.0     N   1.00  12.0     N   46.6   49.6   47.1   43.9  30.361  0.00  0.00     0     0.00      0     0.0  0.00   0.0   0.110   0.000   69.5    47   48.4   67.6   8.76  .0752    0.000   211    5    100.0   10 
 4/21/18  4:10a   49.2   49.3   49.1    93   47.3   8.0     N   1.33  14.0     N   45.5   49.6   45.9   42.9  30.363  0.00  0.00     0     0.00      0     0.0  0.00   0.0   0.110   0.000   69.4    47   48.3   67.6   8.76  .0753    0.000   214    5    100.0   10 
 4/21/18  4:20a   49.3   49.5   49.3    92   47.1   7.0     N   1.17  13.0     N   46.4   49.7   46.8   43.6  30.367  0.00  0.00     0     0.00      0     0.0  0.00   0.0   0.109   0.000   69.4    47   48.3   67.6   8.76  .0753    0.000   210    5    100.0   10 
 4/21/18  4:30a   49.4   49.4   49.2    92   47.2   7.0     N   1.17  12.0     N   46.5   49.8   46.9   43.7  30.371  0.00  0.00     0     0.00      0     0.0  0.00   0.0   0.108   0.000   69.4    47   48.3   67.6   8.76  .0753    0.000   210    5    100.0   10 
 4/21/18  4:40a   48.9   49.4   48.9    92   46.7   9.0     N   1.50  14.0     N   44.6   49.3   45.0   42.0  30.377  0.00  0.00     0     0.00      0     0.0  0.00   0.0   0.112   0.000   69.3    47   48.2   67.5   8.76  .0753    0.000   213    5    100.0   10 
 4/21/18  4:50a   49.0   49.0   48.8    91   46.5   6.0     N   1.00  11.0     N   46.5   49.3   46.8   43.5  30.382  0.00  0.00     0     0.00      0     0.0  0.00   0.0   0.111   0.000   69.3    47   48.2   67.5   8.76  .0753    0.000   213    5    100.0   10 
 4/21/18  5:00a   48.8   49.0   48.8    91   46.3   8.0     N   1.33  12.0     N   45.1   49.1   45.4   42.3  30.386  0.00  0.00     0     0.00      0     0.0  0.00   0.0   0.113   0.000   69.3    47   48.2   67.5   8.76  .0753    0.000   214    5    100.0   10 
 4/21/18  5:10a   48.7   48.8   48.6    90   45.9   8.0     N   1.33  14.0     N   44.9   49.0   45.2   42.1  30.389  0.00  0.00     0     0.00      0     0.0  0.00   0.0   0.113   0.000   69.2    47   48.1   67.4   8.77  .0754    0.000   211    5    100.0   10 
 4/21/18  5:20a   48.7   48.7   48.6    90   45.9   7.0     N   1.17  13.0     N   45.6   49.0   45.9   42.6  30.389  0.00  0.00     0     0.00      0     0.0  0.00   0.0   0.113   0.000   69.2    47   48.1   67.4   8.77  .0754    0.000   211    5    100.0   10 
 4/21/18  5:30a   48.6   48.7   48.5    89   45.5   6.0     N   1.00  13.0     N   46.0   48.8   46.2   42.9  30.394  0.00  0.00     0     0.00      0     0.0  0.00   0.0   0.114   0.000   69.1    47   48.0   67.4   8.77  .0754    0.000   211    5    100.0   10 
 4/21/18  5:40a   48.5   48.6   48.4    89   45.4   5.0     N   0.83  11.0     N   46.5   48.7   46.7   43.4  30.394  0.00  0.00     0     0.00      0     0.0  0.00   0.0   0.115   0.000   69.1    47   48.0   67.4   8.77  .0754    0.000   211    5    100.0   10 
 4/21/18  5:50a   48.5   48.6   48.5    89   45.4   2.0     N   0.33   9.0     N   48.5   48.7   48.7   45.4  30.396  0.00  0.00     0     0.00      0     0.0  0.00   0.0   0.115   0.000   69.0    47   47.9   67.3   8.77  .0754    0.000   213    5    100.0   10 
 4/21/18  6:00a   48.2   48.5   48.2    89   45.1   1.0     N   0.17   4.0   ESE   48.2   48.4   48.4   45.1  30.397  0.00  0.00     0     0.00      0     0.0  0.00   0.0   0.117   0.000   69.0    47   47.9   67.3   8.77  .0754    0.001   211    5    100.0   10 
 4/21/18  6:10a   47.9   48.2   47.8    89   44.8   0.0     N   0.00   3.0     N   47.9   48.1   48.1   44.8  30.398  0.00  0.00     0     0.00      0     0.0  0.00   0.0   0.119   0.000   69.0    47   47.9   67.3   8.77  .0754    0.000   211    5    100.0   10 
 4/21/18  6:20a   47.5   47.8   47.5    90   44.7   1.0     N   0.17   4.0     N   47.5   47.7   47.7   44.4  30.400  0.00  0.00     0     0.00      0     0.0  0.00   0.0   0.122   0.000   68.9    47   47.8   67.2   8.77  .0754    0.000   211    5    100.0   10 
 4/21/18  6:30a   47.2   47.5   47.2    90   44.4   1.0     N   0.17   6.0     N   47.2   47.4   47.4   44.2  30.400  0.00  0.00     6     0.09      9     0.0  0.00   0.0   0.124   0.000   68.8    47   47.7   67.1   8.77  .0755    0.000   212    5    100.0   10 
 4/21/18  6:40a   46.9   47.2   46.9    90   44.1   1.0     N   0.17   5.0     N   46.9   47.1   47.1   44.0  30.401  0.00  0.00    12     0.17     14     0.0  0.00   0.0   0.126   0.000   68.8    47   47.7   67.1   8.77  .0755    0.000   211    5    100.0   10 
 4/21/18  6:50a   46.8   46.9   46.8    90   44.0   0.0     N   0.00   1.0     N   46.8   47.0   47.0   44.0  30.406  0.00  0.00    17     0.24     21     0.0  0.00   0.0   0.126   0.000   68.8    47   47.7   67.1   8.77  .0755    0.000   213    5    100.0   10 
 4/21/18  7:00a   46.7   46.8   46.7    90   43.9   2.0     N   0.33   6.0     N   46.7   46.9   46.9   44.1  30.414  0.00  0.00    27     0.39     33     0.0  0.00   0.0   0.127   0.000   68.8    47   47.7   67.1   8.77  .0755    0.000   213    5    100.0   10 
 4/21/18  7:10a   46.7   46.8   46.7    90   43.9   2.0     N   0.33   5.0     N   46.7   46.9   46.9   44.3  30.417  0.00  0.00    38     0.54     42     0.0  0.00   0.0   0.127   0.000   68.7    47   47.6   67.0   8.78  .0755    0.000   212    5    100.0   10 
 4/21/18  7:20a   46.6   46.7   46.6    89   43.5   2.0     N   0.33   5.0     N   46.6   46.7   46.7   44.1  30.418  0.00  0.00    35     0.50     37     0.0  0.00   0.0   0.128   0.000   68.7    47   47.6   67.0   8.78  .0755    0.000   211    5    100.0   10 
 4/21/18  7:30a   46.6   46.6   46.5    89   43.5   1.0     N   0.17   5.0     N   46.6   46.7   46.7   44.2  30.421  0.00  0.00    41     0.59     44     0.0  0.00   0.0   0.128   0.000   68.7    47   47.6   67.0   8.78  .0755    0.000   212    5    100.0   10 
 4/21/18  7:40a   46.6   46.6   46.5    89   43.5   1.0     N   0.17   4.0     N   46.6   46.7   46.7   44.3  30.423  0.00  0.00    47     0.67     49     0.0  0.00   0.0   0.128   0.000   68.8    47   47.7   67.1   8.77  .0755    0.000   210    5    100.0   10 
 4/21/18  7:50a   46.9   46.9   46.5    90   44.1   2.0     N   0.33   3.0     N   46.9   47.1   47.1   45.9  30.424  0.00  0.00   101     1.45    199     0.0  0.00   0.0   0.126   0.000   68.8    47   47.7   67.1   8.77  .0755    0.000   212    5    100.0   10 
 4/21/18  8:00a   48.0   48.0   46.9    90   45.2   2.0     N   0.33   8.0     N   48.0   48.2   48.2   56.4  30.423  0.00  0.00   250     3.58    290     0.0  0.00   0.0   0.118   0.000   68.8    47   47.7   67.1   8.77  .0755    0.002   213    5    100.0   10 
 4/21/18  8:10a   49.2   49.2   48.1    89   46.1   2.0     N   0.33   5.0     N   49.2   49.5   49.5   58.7  30.427  0.00  0.00   284     4.07    304     0.0  0.00   0.0   0.110   0.000   68.8    47   47.7   67.1   8.77  .0755    0.000   213    5    100.0   10 
 4/21/18  8:20a   49.9   49.9   49.2    87   46.2   2.0     N   0.33   6.0     E   49.9   50.1   50.1   58.7  30.427  0.00  0.00   282     4.04    299     0.0  0.00   0.0   0.105   0.000   68.8    47   47.7   67.1   8.77  .0755    0.000   210    5    100.0   10 
 4/21/18  8:30a   50.1   50.2   49.9    86   46.1   4.0     N   0.67  11.0     N   49.0   50.2   49.1   58.6  30.428  0.00  0.00   315     4.52    330     0.0  0.00   0.0   0.103   0.000   68.8    47   47.7   67.1   8.77  .0755    0.000   213    5    100.0   10 
 4/21/18  8:40a   50.5   50.5   50.1    86   46.5   3.0     N   0.50   9.0     N   50.3   50.6   50.4   60.6  30.428  0.00  0.00   348     4.99    360     0.0  0.00   0.0   0.101   0.000   68.8    47   47.7   67.1   8.77  .0755    0.000   210    5    100.0   10 
 4/21/18  8:50a   51.0   51.0   50.5    85   46.6   3.0     N   0.50   9.0     N   50.8   51.0   50.8   61.4  30.431  0.00  0.00   373     5.35    385     0.0  0.00   0.0   0.097   0.000   68.8    47   47.7   67.1   8.77  .0755    0.000   212    5    100.0   10 
 4/21/18  9:00a   51.4   51.4   51.0    85   47.0   4.0     N   0.67  10.0     N   50.5   51.4   50.5   61.4  30.434  0.00  0.00   403     5.78    422     0.0  0.00   0.0   0.094   0.000   68.8    47   47.7   67.1   8.77  .0755    0.006   213    5    100.0   10 
 4/21/18  9:10a   51.5   51.5   51.4    84   46.8   4.0     N   0.67  10.0     N   50.6   51.5   50.6   62.0  30.431  0.00  0.00   440     6.31    455     0.0  0.00   0.0   0.094   0.000   68.8    47   47.7   67.1   8.77  .0755    0.000   211    5    100.0   10 
 4/21/18  9:20a   51.8   51.8   51.5    83   46.8   4.0     N   0.67  10.0     N   51.0   51.7   50.9   62.9  30.435  0.00  0.00   482     6.91    533     0.0  0.00   0.0   0.092   0.000   68.8    47   47.7   67.1   8.77  .0755    0.000   211    5    100.0   10 
 4/21/18  9:30a   52.4   52.4   51.8    82   47.1   6.0     N   1.00  13.0     N   50.5   52.2   50.3   66.0  30.435  0.00  0.00   623     8.93    640     0.0  0.00   0.0   0.087   0.000   68.8    47   47.7   67.1   8.77  .0755    0.000   214    5    100.0   10 
 4/21/18  9:40a   51.1   52.4   51.1    80   45.1   9.0     N   1.50  15.0     N   47.2   51.0   47.1   51.6  30.436  0.00  0.00   212     3.04    237     0.0  0.00   0.0   0.097   0.000   68.8    47   47.7   67.1   8.77  .0756    0.000   212    5    100.0   10 
 4/21/18  9:50a   50.7   51.0   50.7    80   44.8   7.0     N   1.17  12.0     N   48.0   50.6   47.9   52.7  30.436  0.00  0.00   221     3.17    292     0.0  0.00   0.0   0.099   0.000   68.8    47   47.7   67.1   8.77  .0756    0.000   212    5    100.0   10 
 4/21/18 10:00a   50.5   50.7   50.5    79   44.2   7.0     N   1.17  14.0     N   47.8   50.4   47.7   51.4  30.436  0.00  0.00   187     2.68    195     0.0  0.00   0.0   0.101   0.000   68.8    47   47.7   67.1   8.77  .0756    0.007   213    5    100.0   10 
 4/21/18 10:10a   50.6   50.6   50.5    79   44.3   6.0     N   1.00  11.0     N   48.4   50.5   48.3   52.7  30.444  0.00  0.00   215     3.08    229     0.0  0.00   0.0   0.100   0.000   68.8    47   47.7   67.1   8.77  .0756    0.000   210    5    100.0   10 
 4/21/18 10:20a   50.8   50.8   50.6    77   43.8   7.0     N   1.17  13.0     N   48.2   50.6   48.0   53.0  30.447  0.01  0.00   249     3.57    257     0.0  0.00   0.0   0.099   0.000   68.8    47   47.7   67.1   8.77  .0756    0.000   210    5    100.0   10 
 4/21/18 10:30a   51.1   51.1   50.7    78   44.5   8.0     N   1.33  13.0     N   47.8   50.9   47.6   53.1  30.446  0.00  0.00   281     4.03    355     0.0  0.00   0.0   0.097   0.000   68.8    47   47.7   67.1   8.77  .0756    0.000   212    5    100.0   10 
 4/21/18 10:40a   51.3   51.3   51.1    78   44.7   6.0     N   1.00  11.0     N   49.2   51.1   49.0   54.0  30.445  0.00  0.00   255     3.66    301     0.0  0.00   0.0   0.095   0.000   68.8    47   47.7   67.1   8.77  .0756    0.000   212    5    100.0   10 
 4/21/18 10:50a   51.1   51.3   51.0    78   44.5   6.0     N   1.00  14.0     N   49.0   50.9   48.8   52.8  30.447  0.00  0.00   220     3.15    272     0.0  0.00   0.0   0.097   0.000   68.8    47   47.7   67.1   8.77  .0756    0.000   212    5    100.0   10 
 4/21/18 11:00a   52.3   52.3   51.1    77   45.3   9.0     N   1.50  16.0     N   48.6   52.0   48.3   60.0  30.448  0.00  0.00   765    10.97    803     0.0  0.00   0.0   0.088   0.000   68.9    47   47.8   67.2   8.77  .0756    0.007   210    5    100.0   10 
 4/21/18 11:10a   53.3   53.3   52.3    76   45.9   8.0     N   1.33  14.0     N   50.5   52.8   50.0   63.0  30.449  0.00  0.00   830    11.90    905     0.0  0.00   0.0   0.081   0.000   68.9    47   47.8   67.2   8.77  .0756    0.000   212    5    100.0   10 
 4/21/18 11:20a   53.7   53.9   53.3    75   46.0   7.0     N   1.17  11.0     N   51.6   53.2   51.1   65.4  30.447  0.00  0.00   894    12.82    940     0.0  0.00   0.0   0.078   0.000   68.9    47   47.8   67.2   8.77  .0756    0.000   209    5    100.0   10 
 4/21/18 11:30a   53.3   53.7   53.2    76   45.9   7.0     N   1.17  14.0     N   51.2   52.8   50.7   60.7  30.449  0.00  0.00   586     8.40    888     0.1  0.01   0.6   0.081   0.000   68.9    47   47.8   67.2   8.77  .0756    0.000   212    5    100.0   10 
 4/21/18 11:40a   54.0   54.0   53.3    76   46.6   9.0     N   1.50  15.0     N   50.6   53.5   50.1   61.8  30.447  0.00  0.00   843    12.08    870     0.4  0.03   0.6   0.076   0.000   69.0    47   47.9   67.3   8.77  .0755    0.000   212    5    100.0   10 
 4/21/18 11:50a   54.0   54.1   54.0    74   45.9   9.0     N   1.50  17.0     N   50.6   53.5   50.1   61.7  30.447  0.00  0.00   857    12.29    898     0.6  0.04   0.9   0.076   0.000   69.0    47   47.9   67.3   8.77  .0755    0.000   210    5    100.0   10 
 4/21/18 12:00p   54.1   54.1   53.7    76   46.7  11.0     N   1.83  15.0     N   49.5   53.6   49.0   59.4  30.444  0.00  0.00   844    12.10    884     0.8  0.06   0.9   0.076   0.000   69.0    47   47.9   67.3   8.77  .0755    0.016   212    5    100.0   10 
 4/21/18 12:10p   54.1   54.2   54.1    74   46.0   9.0     N   1.50  15.0     N   50.7   53.6   50.2   61.1  30.446  0.00  0.00   842    12.07    851     1.0  0.07   1.0   0.076   0.000   69.1    47   48.0   67.4   8.77  .0755    0.000   212    5    100.0   10 
 4/21/18 12:20p   54.4   54.4   54.0    74   46.3  10.0     N   1.67  16.0     N   50.4   53.9   49.9   60.5  30.446  0.00  0.00   853    12.23    858     1.1  0.08   1.2   0.074   0.000   69.2    47   48.1   67.4   8.77  .0755    0.000   212    5    100.0   10 
 4/21/18 12:30p   54.2   54.5   54.1    75   46.4  12.0     N   2.00  18.0     N   49.1   53.7   48.6   58.5  30.446  0.00  0.00   861    12.34    863     1.3  0.09   1.3   0.075   0.000   69.3    47   48.2   67.5   8.76  .0755    0.000   210    5    100.0   10 
 4/21/18 12:40p   54.4   54.4   54.0    76   47.0  12.0     N   2.00  17.0     N   49.3   53.9   48.8   58.7  30.445  0.00  0.00   868    12.44    874     1.3  0.09   1.4   0.074   0.000   69.4    47   48.3   67.6   8.76  .0755    0.000   212    5    100.0   10 
 4/21/18 12:50p   54.3   54.4   54.2    75   46.5  12.0     N   2.00  17.0     N   49.2   53.8   48.7   58.6  30.445  0.00  0.00   875    12.54    879     1.4  0.10   1.4   0.074   0.000   69.6    47   48.5   67.7   8.76  .0754    0.000   213    5    100.0   10 
 4/21/18  1:00p   54.2   54.4   54.1    74   46.1  13.0     N   2.17  18.0     N   48.6   53.7   48.1   57.6  30.445  0.00  0.00   878    12.59    882     1.5  0.11   1.5   0.075   0.000   69.7    47   48.6   67.8   8.76  .0754    0.018   213    5    100.0   10 
 4/21/18  1:10p   54.6   54.8   54.2    72   45.8  13.0     N   2.17  20.0     N   49.1   53.9   48.4   57.9  30.445  0.00  0.00   882    12.64    888     1.5  0.11   1.5   0.072   0.000   69.8    47   48.7   67.9   8.75  .0754    0.000   212    5    100.0   10 
 4/21/18  1:20p   54.6   54.6   54.3    73   46.1  13.0     N   2.17  18.0     N   49.1   54.0   48.5   58.1  30.444  0.00  0.00   885    12.69    889     1.5  0.11   1.5   0.072   0.000   69.8    47   48.7   67.9   8.75  .0754    0.000   211    5    100.0   10 
 4/21/18  1:30p   55.1   55.2   54.6    73   46.6  11.0     N   1.83  19.0     N   50.7   54.5   50.1   60.3  30.441  0.00  0.00   881    12.63    888     1.4  0.10   1.6   0.069   0.000   69.8    47   48.7   67.9   8.75  .0754    0.000   213    5    100.0   10 
 4/21/18  1:40p   55.3   55.3   55.1    72   46.4  13.0     N   2.17  19.0     N   49.9   54.6   49.2   58.8  30.443  0.00  0.00   882    12.64    886     1.4  0.10   1.4   0.067   0.000   69.9    47   48.7   67.9   8.75  .0754    0.000   211    5    100.0   10 
 4/21/18  1:50p   55.6   55.6   55.2    70   46.0  13.0     N   2.17  18.0     N   50.3   54.8   49.5   59.1  30.442  0.00  0.00   879    12.60    882     1.3  0.09   1.4   0.065   0.000   69.9    47   48.7   67.9   8.75  .0754    0.000   213    5    100.0   10 
 4/21/18  2:00p   55.6   55.7   55.5    68   45.2  13.0     N   2.17  19.0     N   50.3   54.7   49.4   59.1  30.438  0.00  0.00   876    12.56    881     1.3  0.09   1.3   0.065   0.000   69.9    47   48.7   67.9   8.75  .0754    0.019   212    5    100.0   10 
 4/21/18  2:10p   55.8   55.9   55.6    68   45.4  13.0     N   2.17  20.0     N   50.5   54.9   49.6   59.4  30.436  0.00  0.00   868    12.44    875     1.1  0.08   1.2   0.064   0.000   69.9    47   48.7   67.9   8.75  .0754    0.000   212    5    100.0   10 
 4/21/18  2:20p   55.7   55.8   55.7    66   44.5  14.0     N   2.33  20.0     N   50.0   54.7   49.0   58.4  30.438  0.00  0.00   855    12.26    867     0.9  0.06   1.0   0.065   0.000   70.0    47   48.8   68.0   8.75  .0754    0.000   214    5    100.0   10 
 4/21/18  2:30p   55.9   55.9   55.5    65   44.3  12.0     N   2.00  20.0     N   51.1   54.9   50.1   60.1  30.438  0.00  0.00   841    12.06    849     0.6  0.04   0.8   0.063   0.000   69.9    47   48.7   67.9   8.75  .0754    0.000   213    5    100.0   10 
 4/21/18  2:40p   55.8   56.0   55.7    66   44.6  14.0     N   2.33  21.0     N   50.1   54.8   49.1   58.7  30.436  0.00  0.00   841    12.06    849     0.3  0.02   0.6   0.064   0.000   69.9    47   48.7   67.9   8.75  .0754    0.000   213    5    100.0   10 
 4/21/18  2:50p   55.9   56.1   55.9    64   43.9  13.0     N   2.17  20.0     N   50.6   54.8   49.5   59.5  30.436  0.00  0.00   831    11.91    835     0.0  0.00   0.0   0.063   0.000   69.9    47   48.7   67.9   8.75  .0754    0.000   213    5    100.0   10 
 4/21/18  3:00p   55.7   55.9   55.7    64   43.7  14.0     N   2.33  22.0     N   50.0   54.6   48.9   58.3  30.433  0.00  0.00   796    11.41    828     0.0  0.00   0.0   0.065   0.000   70.0    47   48.8   68.0   8.75  .0753    0.019   213    5    100.0   10 
 4/21/18  3:10p   55.7   55.7   55.5    66   44.5  12.0     N   2.00  19.0     N   50.8   54.7   49.8   60.4  30.434  0.00  0.00   806    11.55    831     0.0  0.00   0.0   0.065   0.000   70.0    47   48.8   68.0   8.75  .0753    0.000   211    5    100.0   10 
 4/21/18  3:20p   55.7   55.9   55.6    69   45.7  14.0     N   2.33  23.0     N   50.0   54.9   49.2   59.1  30.431  0.00  0.00   785    11.25    795     0.0  0.00   0.0   0.065   0.000   70.0    47   48.8   68.0   8.75  .0753    0.000   210    5    100.0   10 
 4/21/18  3:30p   55.4   55.8   55.4    69   45.4  13.0     N   2.17  23.0     N   50.0   54.6   49.2   59.5  30.430  0.00  0.00   763    10.94    770     0.0  0.00   0.0   0.067   0.000   70.0    47   48.8   68.0   8.75  .0753    0.000   213    5    100.0   10 
 4/21/18  3:40p   55.4   55.9   55.4    71   46.2  13.0     N   2.17  21.0     N   50.0   54.7   49.3   59.7  30.425  0.00  0.00   743    10.65    752     0.0  0.00   0.0   0.067   0.000   70.0    47   48.8   68.0   8.75  .0753    0.000   212    5    100.0   10 
 4/21/18  3:50p   55.5   55.9   55.4    69   45.5  13.0     N   2.17  20.0     N   50.2   54.7   49.4   59.8  30.423  0.00  0.00   723    10.36    733     0.0  0.00   0.0   0.066   0.000   70.0    47   48.8   68.0   8.75  .0753    0.000   210    5    100.0   10 
 4/21/18  4:00p   55.8   55.9   55.4    70   46.2  11.0     N   1.83  20.0     N   51.5   55.0   50.7   62.0  30.420  0.00  0.00   703    10.08    714     0.0  0.00   0.0   0.064   0.000   70.1    47   48.9   68.1   8.75  .0753    0.017   212    5    100.0   10 
 4/21/18  4:10p   55.8   55.8   55.5    69   45.8  12.0     N   2.00  20.0     N   51.0   55.0   50.2   61.2  30.418  0.00  0.00   682     9.78    689     0.0  0.00   0.0   0.064   0.000   70.1    47   48.9   68.1   8.75  .0753    0.000   211    5    100.0   10 
 4/21/18  4:20p   55.6   55.8   55.4    70   46.0  13.0     N   2.17  20.0     N   50.3   54.8   49.5   60.1  30.417  0.00  0.00   655     9.39    670     0.0  0.00   0.0   0.065   0.000   70.1    47   48.9   68.1   8.75  .0753    0.000   213    5    100.0   10 
 4/21/18  4:30p   55.3   55.7   55.3    69   45.3  13.0     N   2.17  20.0     N   49.9   54.5   49.1   59.8  30.418  0.00  0.00   632     9.06    640     0.0  0.00   0.0   0.067   0.000   70.2    47   49.0   68.3   8.75  .0753    0.000   212    5    100.0   10 
 4/21/18  4:40p   55.4   55.4   55.1    70   45.8  13.0     N   2.17  20.0     N   50.0   54.6   49.2   60.0  30.418  0.00  0.00   607     8.70    622     0.0  0.00   0.0   0.067   0.000   70.3    47   49.1   68.4   8.75  .0752    0.000   213    5    100.0   10 
 4/21/18  4:50p   55.4   55.6   55.4    70   45.8  12.0     N   2.00  20.0     N   50.5   54.6   49.7   60.9  30.413  0.00  0.00   580     8.31    592     0.0  0.00   0.0   0.067   0.000   70.4    48   49.8   68.6   8.86  .0752    0.000   214    5    100.0   10 
 4/21/18  5:00p   55.3   55.5   55.1    70   45.7  12.0     N   2.00  21.0     N   50.4   54.5   49.6   60.7  30.413  0.00  0.00   550     7.88    563     0.0  0.00   0.0   0.067   0.000   70.5    48   49.9   68.8   8.86  .0752    0.015   210    5    100.0   10 
 4/21/18  5:10p   55.0   55.2   54.9    71   45.8  12.0     N   2.00  20.0     N   50.0   54.3   49.3   60.3  30.411  0.00  0.00   520     7.45    536     0.0  0.00   0.0   0.069   0.000   70.6    48   50.0   68.9   8.86  .0752    0.000   210    5    100.0   10 
 4/21/18  5:20p   54.8   55.1   54.8    71   45.6  12.0     N   2.00  21.0     N   49.8   54.1   49.1   60.0  30.409  0.00  0.00   493     7.07    504     0.0  0.00   0.0   0.071   0.000   70.6    48   50.0   68.9   8.86  .0752    0.000   211    5    100.0   10 
 4/21/18  5:30p   54.5   54.8   54.4    72   45.7  14.0     N   2.33  20.0     N   48.7   53.8   48.0   58.2  30.407  0.00  0.00   467     6.69    476     0.0  0.00   0.0   0.073   0.000   70.7    48   50.0   69.0   8.86  .0751    0.000   212    5    100.0   10 
 4/21/18  5:40p   54.1   54.4   54.1    72   45.3  12.0     N   2.00  22.0     N   49.0   53.5   48.4   58.3  30.403  0.00  0.00   408     5.85    450     0.0  0.00   0.0   0.076   0.000   70.7    48   50.0   69.0   8.86  .0751    0.000   212    5    100.0   10 
 4/21/18  5:50p   54.3   54.3   54.1    72   45.5  12.0     N   2.00  19.0     N   49.2   53.7   48.6   59.0  30.402  0.00  0.00   411     5.89    427     0.0  0.00   0.0   0.074   0.000   70.8    48   50.1   69.1   8.87  .0751    0.000   213    5    100.0   10 
 4/21/18  6:00p   53.8   54.4   53.8    73   45.3  12.0     N   2.00  20.0     N   48.7   53.2   48.1   56.6  30.401  0.00  0.00   338     4.85    390     0.0  0.00   0.0   0.078   0.000   70.8    47   49.6   69.0   8.75  .0751    0.011   212    5    100.0   10 
 4/21/18  6:10p   53.6   53.8   53.6    73   45.2  12.0     N   2.00  21.0     N   48.4   53.0   47.8   56.0  30.400  0.00  0.00   313     4.49    364     0.0  0.00   0.0   0.079   0.000   70.8    47   49.6   69.0   8.75  .0751    0.000   210    5    100.0   10 
 4/21/18  6:20p   53.5   53.6   53.5    73   45.1  13.0     N   2.17  22.0     N   47.8   52.9   47.2   56.5  30.401  0.00  0.00   340     4.87    359     0.0  0.00   0.0   0.080   0.000   70.8    47   49.6   69.0   8.75  .0751    0.000   211    5    100.0   10 
 4/21/18  6:30p   53.6   53.6   53.5    74   45.5  12.0     N   2.00  19.0     N   48.4   53.1   47.9   56.8  30.398  0.00  0.00   306     4.39    325     0.0  0.00   0.0   0.079   0.000   70.9    47   49.7   69.2   8.75  .0751    0.000   212    5    100.0   10 
 4/21/18  6:40p   53.3   53.6   53.2    74   45.2  12.0     N   2.00  21.0     N   48.1   52.8   47.6   49.3  30.397  0.00  0.00   253     3.63    279     0.0  0.00   0.0   0.081   0.000   70.8    47   49.6   69.0   8.75  .0751    0.000   212    5    100.0   10 
 4/21/18  6:50p   52.6   53.2   52.6    74   44.5  13.0     N   2.17  21.0     N   46.9   52.1   46.4   47.2  30.396  0.00  0.00   203     2.91    225     0.0  0.00   0.0   0.086   0.000   70.8    47   49.6   69.0   8.75  .0751    0.000   211    5    100.0   10 
 4/21/18  7:00p   52.3   52.6   52.3    73   43.9  13.0     N   2.17  21.0   NNE   46.5   51.8   46.0   46.2  30.397  0.00  0.00   166     2.38    183     0.0  0.00   0.0   0.088   0.000   70.8    47   49.6   69.0   8.75  .0751    0.007   210    5    100.0   10 
 4/21/18  7:10p   52.2   52.4   52.2    74   44.2  13.0     N   2.17  25.0     N   46.4   51.7   45.9   45.5  30.398  0.00  0.00   131     1.88    146     0.0  0.00   0.0   0.089   0.000   70.8    47   49.6   69.0   8.75  .0751    0.000   213    5    100.0   10 
 4/21/18  7:20p   51.8   52.2   51.8    75   44.1  14.0     N   2.33  24.0     N   45.6   51.4   45.2   44.2  30.398  0.00  0.00    94     1.35    111     0.0  0.00   0.0   0.092   0.000   70.7    47   49.5   68.9   8.75  .0751    0.000   213    5    100.0   10 
 4/21/18  7:30p   51.6   51.8   51.5    76   44.3  12.0     N   2.00  20.0     N   46.1   51.3   45.8   44.2  30.399  0.00  0.00    64     0.92     74     0.0  0.00   0.0   0.093   0.000   70.7    47   49.5   68.9   8.75  .0751    0.000   211    5    100.0   10 
 4/21/18  7:40p   51.4   51.6   51.3    77   44.4  11.0     N   1.83  23.0     N   46.4   51.1   46.1   44.0  30.400  0.00  0.00    41     0.59     44     0.0  0.00   0.0   0.094   0.000   70.6    47   49.4   68.8   8.75  .0752    0.000   212    5    100.0   10 
 4/21/18  7:50p   50.7   51.4   50.7    77   43.8  13.0     N   2.17  20.0     N   44.7   50.5   44.5   42.3  30.399  0.00  0.00    27     0.39     33     0.0  0.00   0.0   0.099   0.000   70.5    47   49.3   68.6   8.75  .0752    0.000   212    5    100.0   10 
 4/21/18  8:00p   50.4   50.7   50.4    77   43.5  13.0     N   2.17  23.0     N   44.3   50.2   44.1   41.6  30.396  0.00  0.00    13     0.19     19     0.0  0.00   0.0   0.101   0.000   70.5    46   48.7   68.6   8.64  .0752    0.003   211    5    100.0   10 
 4/21/18  8:10p   50.0   50.5   50.0    77   43.1  10.0     N   1.67  18.0     N   45.3   49.9   45.2   42.3  30.397  0.00  0.00     3     0.04      7     0.0  0.00   0.0   0.104   0.000   70.3    46   48.5   68.3   8.64  .0752    0.000   211    5    100.0   10 
 4/21/18  8:20p   49.5   50.0   49.5    77   42.6   8.0     N   1.33  15.0     N   45.9   49.3   45.7   42.5  30.396  0.00  0.00     0     0.00      0     0.0  0.00   0.0   0.108   0.000   70.3    46   48.5   68.3   8.64  .0752    0.000   212    5    100.0   10 
 4/21/18  8:30p   49.2   49.5   49.2    78   42.6  10.0     N   1.67  15.0     N   44.3   49.0   44.1   41.1  30.399  0.00  0.00     0     0.00      0     0.0  0.00   0.0   0.110   0.000   70.2    46   48.4   68.2   8.65  .0752    0.000   212    5    100.0   10 
 4/21/18  8:40p   49.0   49.2   49.0    78   42.4   7.0     N   1.17  16.0     N   46.0   48.8   45.8   42.4  30.400  0.00  0.00     0     0.00      0     0.0  0.00   0.0   0.111   0.000   70.2    46   48.4   68.2   8.65  .0752    0.000   212    5    100.0   10 
 4/21/18  8:50p   48.8   49.0   48.8    78   42.2   7.0     N   1.17  13.0     N   45.8   48.6   45.6   42.2  30.402  0.00  0.00     0     0.00      0     0.0  0.00   0.0   0.113   0.000   70.1    46   48.4   68.0   8.65  .0753    0.000   208    5    100.0   10 
 4/21/18  9:00p   48.6   48.8   48.6    78   42.0   6.0     N   1.00  15.0     N   46.0   48.4   45.8   42.4  30.404  0.00  0.00     0     0.00      0     0.0  0.00   0.0   0.114   0.000   70.1    46   48.4   68.0   8.65  .0753    0.001   210    5    100.0   10 
 4/21/18  9:10p   48.6   48.6   48.5    79   42.4   7.0     N   1.17  13.0     N   45.5   48.5   45.4   42.0  30.408  0.00  0.00     0     0.00      0     0.0  0.00   0.0   0.114   0.000   70.0    46   48.3   67.9   8.65  .0753    0.000   209    5    100.0   10 
 4/21/18  9:20p   48.4   48.6   48.4    79   42.2   6.0     N   1.00  13.0     N   45.8   48.3   45.7   42.3  30.407  0.00  0.00     0     0.00      0     0.0  0.00   0.0   0.115   0.000   69.9    46   48.2   67.8   8.65  .0753    0.000   211    5    100.0   10 
 4/21/18  9:30p   48.2   48.5   48.2    79   42.0   5.0     N   0.83  15.0     N   46.1   48.1   46.0   42.5  30.407  0.00  0.00     0     0.00      0     0.0  0.00   0.0   0.117   0.000   69.9    46   48.2   67.8   8.65  .0753    0.000   211    5    100.0   10 
 4/21/18  9:40p   48.0   48.2   48.0    79   41.8   4.0     N   0.67  10.0     N   46.6   47.9   46.5   43.0  30.408  0.00  0.00     0     0.00      0     0.0  0.00   0.0   0.118   0.000   69.9    46   48.2   67.8   8.65  .0753    0.000   210    5    100.0   10 
 4/21/18  9:50p   47.6   48.0   47.6    79   41.4   3.0     N   0.50   6.0     N   47.0   47.4   46.8   43.3  30.409  0.00  0.00     0     0.00      0     0.0  0.00   0.0   0.121   0.000   69.8    46   48.1   67.8   8.65  .0753    0.000   213    5    100.0   10 
 4/21/18 10:00p   47.4   47.6   47.4    79   41.2   3.0     N   0.50  10.0     N   46.7   47.2   46.5   43.0  30.407  0.00  0.00     0     0.00      0     0.0  0.00   0.0   0.122   0.000   69.7    46   48.0   67.7   8.65  .0753    0.001   212    5    100.0   10 
 4/21/18 10:10p   47.2   47.4   47.2    79   41.0   2.0     N   0.33   6.0     N   47.2   47.0   47.0   43.5  30.403  0.00  0.00     0     0.00      0     0.0  0.00   0.0   0.124   0.000   69.7    46   48.0   67.7   8.65  .0753    0.000   213    5    100.0   10 
 4/21/18 10:20p   47.1   47.2   47.1    79   40.9   3.0     N   0.50   6.0     N   46.4   46.9   46.2   42.7  30.400  0.00  0.00     0     0.00      0     0.0  0.00   0.0   0.124   0.000   69.6    46   47.9   67.6   8.65  .0753    0.000   211    5    100.0   10 
 4/21/18 10:30p   47.1   47.2   47.1    79   40.9   3.0     N   0.50   8.0     N   46.4   46.9   46.2   42.7  30.396  0.00  0.00     0     0.00      0     0.0  0.00   0.0   0.124   0.000   69.5    46   47.8   67.6   8.65  .0753    0.000   213    5    100.0   10 
 4/21/18 10:40p   46.9   47.1   46.9    80   41.1   2.0     N   0.33   8.0     N   46.9   46.7   46.7   43.2  30.394  0.00  0.00     0     0.00      0     0.0  0.00   0.0   0.126   0.000   69.5    46   47.8   67.6   8.65  .0753    0.000   214    5    100.0   10 
 4/21/18 10:50p   46.8   46.9   46.7    80   41.0   1.0     N   0.17   4.0     N   46.8   46.6   46.6   43.1  30.391  0.00  0.00     0     0.00      0     0.0  0.00   0.0   0.126   0.000   69.5    46   47.8   67.6   8.65  .0753    0.000   210    5    100.0   10 
 4/21/18 11:00p   46.6   46.8   46.6    80   40.8   0.0     N   0.00   3.0     N   46.6   46.4   46.4   42.9  30.388  0.00  0.00     0     0.00      0     0.0  0.00   0.0   0.128   0.000   69.4    46   47.7   67.5   8.65  .0753    0.001   210    5    100.0   10 
 4/21/18 11:10p   46.6   46.7   46.5    80   40.8   2.0     N   0.33   8.0     N   46.6   46.4   46.4   42.9  30.386  0.00  0.00     0     0.00      0     0.0  0.00   0.0   0.128   0.000   69.3    46   47.6   67.4   8.65  .0754    0.000   213    5    100.0   10 
 4/21/18 11:20p   46.7   46.8   46.6    80   40.9   3.0     N   0.50   9.0     N   46.0   46.5   45.8   42.3  30.384  0.00  0.00     0     0.00      0     0.0  0.00   0.0   0.127   0.000   69.3    46   47.6   67.4   8.65  .0754    0.000   212    5    100.0   10 
 4/21/18 11:30p   46.7   46.7   46.6    80   40.9   3.0     N   0.50   9.0     N   46.0   46.5   45.8   42.3  30.382  0.00  0.00     0     0.00      0     0.0  0.00   0.0   0.127   0.000   69.2    46   47.5   67.3   8.65  .0754    0.000   211    5    100.0   10 
 4/21/18 11:40p   46.6   46.6   46.5    80   40.8   3.0     N   0.50  10.0     N   45.9   46.4   45.7   42.2  30.382  0.00  0.00     0     0.00      0     0.0  0.00   0.0   0.128   0.000   69.2    46   47.5   67.3   8.65  .0754    0.000   211    5    100.0   10 
 4/21/18 11:50p   46.5   46.6   46.5    80   40.7   3.0     N   0.50   6.0     N   45.8   46.3   45.6   42.1  30.380  0.00  0.00     0     0.00      0     0.0  0.00   0.0   0.128   0.000   69.1    46   47.4   67.3   8.65  .0754    0.000   209    5    100.0   10 
 4/22/18 12:00a   46.7   46.7   46.5    80   40.9   3.0     N   0.50   9.0     N   46.0   46.5   45.8   42.3  30.378  0.00  0.00     0     0.00      0     0.0  0.00   0.0   0.127   0.000   69.0    46   47.4   67.2   8.65  .0754    0.001   212    5    100.0   10 
 4/22/18 12:10a   46.7   46.8   46.7    80   40.9   3.0     N   0.50   8.0     N   46.0   46.5   45.8   42.3  30.377  0.00  0.00     0     0.00      0     0.0  0.00   0.0   0.127   0.000   69.0    46   47.4   67.2   8.65  .0754    0.000   209    5    100.0   10 
 4/22/18 12:20a   46.6   46.7   46.6    80   40.8   2.0     N   0.33   5.0     N   46.6   46.4   46.4   42.9  30.374  0.00  0.00     0     0.00      0     0.0  0.00   0.0   0.128   0.000   68.9    46   47.3   67.1   8.65  .0754    0.000   212    5    100.0   10 
 4/22/18 12:30a   46.5   46.7   46.5    80   40.7   2.0     N   0.33   8.0     N   46.5   46.3   46.3   42.8  30.377  0.00  0.00     0     0.00      0     0.0  0.00   0.0   0.128   0.000   68.8    46   47.2   67.0   8.65  .0754    0.000   212    5    100.0   10 
 4/22/18 12:40a   46.4   46.6   46.4    80   40.6   1.0     N   0.17   4.0     N   46.4   46.2   46.2   42.7  30.380  0.00  0.00     0     0.00      0     0.0  0.00   0.0   0.129   0.000   68.8    46   47.2   67.0   8.65  .0754    0.000   213    5    100.0   10 
 4/22/18 12:50a   46.3   46.4   46.3    80   40.5   0.0     N   0.00   3.0     N   46.3   46.1   46.1   42.6  30.383  0.00  0.00     0     0.00      0     0.0  0.00   0.0   0.130   0.000   68.7    46   47.1   66.9   8.65  .0755    0.000   209    5    100.0   10 
 4/22/18  1:00a   46.0   46.3   46.0    79   39.9   0.0   ---   0.00   0.0   ---   46.0   45.8   45.8   42.2  30.380  0.00  0.00     0     0.00      0     0.0  0.00   0.0   0.132   0.000   68.6    46   47.0   66.8   8.65  .0755    0.001   212    5    100.0   10 
 4/22/18  1:10a   45.8   46.0   45.8    80   40.0   0.0     N   0.00   1.0     N   45.8   45.6   45.6   42.0  30.384  0.00  0.00     0     0.00      0     0.0  0.00   0.0   0.133   0.000   68.6    46   47.0   66.8   8.65  .0755    0.000   212    5    100.0   10 
 4/22/18  1:20a   45.6   45.8   45.6    80   39.8   1.0     N   0.17   4.0     N   45.6   45.4   45.4   41.8  30.383  0.00  0.00     0     0.00      0     0.0  0.00   0.0   0.135   0.000   68.5    46   46.9   66.8   8.65  .0755    0.000   212    5    100.0   10 
 4/22/18  1:30a   45.5   45.6   45.5    80   39.7   1.0     N   0.17   3.0     N   45.5   45.3   45.3   41.7  30.384  0.00  0.00     0     0.00      0     0.0  0.00   0.0   0.135   0.000   68.5    46   46.9   66.8   8.65  .0755    0.000   212    5    100.0   10 
 4/22/18  1:40a   45.4   45.5   45.4    80   39.6   1.0     N   0.17   4.0     N   45.4   45.2   45.2   41.6  30.380  0.00  0.00     0     0.00      0     0.0  0.00   0.0   0.136   0.000   68.4    46   46.8   66.7   8.65  .0755    0.000   213    5    100.0   10 
 4/22/18  1:50a   45.2   45.4   45.2    80   39.4   1.0     N   0.17   5.0     N   45.2   45.0   45.0   41.4  30.380  0.00  0.00     0     0.00      0     0.0  0.00   0.0   0.137   0.000   68.3    46   46.7   66.6   8.65  .0755    0.000   212    5    100.0   10 
 4/22/18  2:00a   44.9   45.2   44.9    80   39.1   1.0     N   0.17   5.0     N   44.9   44.7   44.7   41.1  30.377  0.00  0.00     0     0.00      0     0.0  0.00   0.0   0.140   0.000   68.3    46   46.7   66.6   8.65  .0755    0.001   213    5    100.0   10 
 4/22/18  2:10a   44.7   44.9   44.7    80   38.9   1.0     N   0.17   4.0     N   44.7   44.5   44.5   40.9  30.375  0.00  0.00     0     0.00      0     0.0  0.00   0.0   0.141   0.000   68.2    46   46.6   66.5   8.65  .0755    0.000   209    5    100.0   10 
 4/22/18  2:20a   44.3   44.7   44.3    80   38.5   1.0     N   0.17   3.0     N   44.3   44.1   44.1   40.5  30.374  0.00  0.00     0     0.00      0     0.0  0.00   0.0   0.144   0.000   68.2    46   46.6   66.5   8.65  .0755    0.000   213    5    100.0   10 
 4/22/18  2:30a   43.7   44.3   43.7    80   37.9   1.0     N   0.17   3.0     N   43.7   43.5   43.5   39.9  30.372  0.00  0.00     0     0.00      0     0.0  0.00   0.0   0.148   0.000   68.1    46   46.5   66.4   8.65  .0755    0.000   211    5    100.0   10 
 4/22/18  2:40a   43.4   43.7   43.4    81   38.0   1.0     N   0.17   3.0     N   43.4   43.2   43.2   39.6  30.373  0.00  0.00     0     0.00      0     0.0  0.00   0.0   0.150   0.000   68.0    46   46.4   66.3   8.65  .0755    0.000   211    5    100.0   10 
 4/22/18  2:50a   43.3   43.4   43.3    81   37.9   0.0     N   0.00   3.0     N   43.3   43.1   43.1   39.5  30.370  0.00  0.00     0     0.00      0     0.0  0.00   0.0   0.151   0.000   68.0    46   46.4   66.3   8.65  .0755    0.000   210    5    100.0   10 
 4/22/18  3:00a   43.2   43.3   43.1    82   38.1   1.0     N   0.17   3.0     N   43.2   43.0   43.0   39.4  30.370  0.00  0.00     0     0.00      0     0.0  0.00   0.0   0.151   0.000   67.9    46   46.3   66.2   8.65  .0756    0.001   210    5    100.0   10 
 4/22/18  3:10a   43.1   43.2   43.1    82   38.0   0.0   ---   0.00   0.0   ---   43.1   42.9   42.9   39.3  30.373  0.00  0.00     0     0.00      0     0.0  0.00   0.0   0.152   0.000   67.8    46   46.3   66.1   8.65  .0756    0.000   212    5    100.0   10 
 4/22/18  3:20a   42.8   43.1   42.8    82   37.7   0.0     N   0.00   1.0     N   42.8   42.6   42.6   39.0  30.371  0.00  0.00     0     0.00      0     0.0  0.00   0.0   0.154   0.000   67.8    46   46.3   66.1   8.65  .0756    0.000   210    5    100.0   10 
 4/22/18  3:30a   42.6   42.8   42.6    82   37.5   0.0     N   0.00   1.0     N   42.6   42.4   42.4   38.8  30.375  0.00  0.00     0     0.00      0     0.0  0.00   0.0   0.156   0.000   67.7    46   46.2   66.0   8.65  .0756    0.000   212    5    100.0   10 
 4/22/18  3:40a   42.6   42.6   42.5    82   37.5   0.0   ---   0.00   0.0   ---   42.6   42.4   42.4   38.8  30.377  0.00  0.00     0     0.00      0     0.0  0.00   0.0   0.156   0.000   67.6    46   46.1   65.9   8.65  .0756    0.000   209    5    100.0   10 
 4/22/18  3:50a   42.7   42.8   42.6    82   37.6   0.0   ---   0.00   0.0   ---   42.7   42.5   42.5   38.9  30.374  0.00  0.00     0     0.00      0     0.0  0.00   0.0   0.155   0.000   67.5    46   46.0   65.8   8.65  .0756    0.000   212    5    100.0   10 
 4/22/18  4:00a   42.5   42.7   42.5    83   37.7   0.0   ---   0.00   0.0   ---   42.5   42.3   42.3   38.7  30.375  0.00  0.00     0     0.00      0     0.0  0.00   0.0   0.156   0.000   67.5    46   46.0   65.8   8.65  .0756    0.000   212    5    100.0   10 
 4/22/18  4:10a   42.0   42.5   42.0    82   36.9   0.0   ---   0.00   0.0   ---   42.0   41.7   41.7   38.0  30.372  0.00  0.00     0     0.00      0     0.0  0.00   0.0   0.160   0.000   67.4    46   45.9   65.6   8.65  .0756    0.000   211    5    100.0   10 
 4/22/18  4:20a   41.7   42.0   41.6    83   36.9   0.0   ---   0.00   0.0   ---   41.7   41.5   41.5   37.8  30.372  0.00  0.00     0     0.00      0     0.0  0.00   0.0   0.162   0.000   67.3    46   45.8   65.5   8.65  .0757    0.000   213    5    100.0   10 
 4/22/18  4:30a   41.8   41.8   41.7    83   37.0   0.0   ---   0.00   0.0   ---   41.8   41.6   41.6   38.0  30.370  0.00  0.00     0     0.00      0     0.0  0.00   0.0   0.161   0.000   67.3    46   45.8   65.5   8.65  .0757    0.000   212    5    100.0   10 
 4/22/18  4:40a   41.6   41.8   41.6    84   37.1   0.0   ---   0.00   0.0   ---   41.6   41.4   41.4   37.8  30.367  0.00  0.00     0     0.00      0     0.0  0.00   0.0   0.163   0.000   67.2    46   45.7   65.4   8.65  .0757    0.000   209    5    100.0   10 
 4/22/18  4:50a   41.6   41.7   41.6    84   37.1   0.0   ---   0.00   0.0   ---   41.6   41.4   41.4   37.8  30.367  0.00  0.00     0     0.00      0     0.0  0.00   0.0   0.163   0.000   67.1    46   45.6   65.3   8.65  .0757    0.000   211    5    100.0   10 
 4/22/18  5:00a   41.8   41.8   41.5    84   37.3   0.0   ---   0.00   0.0   ---   41.8   41.6   41.6   38.0  30.369  0.00  0.00     0     0.00      0     0.0  0.00   0.0   0.161   0.000   67.1    45   45.0   65.2   8.51  .0757    0.000   210    5    100.0   10 
 4/22/18  5:10a   41.1   41.7   41.1    84   36.6   0.0   ---   0.00   0.0   ---   41.1   40.9   40.9   37.2  30.365  0.00  0.00     0     0.00      0     0.0  0.00   0.0   0.166   0.000   67.0    46   45.5   65.2   8.65  .0757    0.000   211    5    100.0   10 
 4/22/18  5:20a   41.0   41.1   40.9    84   36.5   0.0   ---   0.00   0.0   ---   41.0   40.8   40.8   37.1  30.362  0.00  0.00     0     0.00      0     0.0  0.00   0.0   0.167   0.000   67.0    45   44.9   65.1   8.51  .0757    0.000   211    5    100.0   10 
 4/22/18  5:30a   40.7   41.0   40.7    85   36.5   0.0   ---   0.00   0.0   ---   40.7   40.5   40.5   36.8  30.362  0.00  0.00     0     0.00      0     0.0  0.00   0.0   0.169   0.000   66.9    45   44.9   65.0   8.51  .0757    0.000   213    5    100.0   10 
 4/22/18  5:40a   41.2   41.2   40.7    86   37.3   0.0   ---   0.00   0.0   ---   41.2   41.0   41.0   37.4  30.360  0.00  0.00     0     0.00      0     0.0  0.00   0.0   0.165   0.000   66.8    45   44.8   64.9   8.51  .0757    0.000   212    5    100.0   10 
 4/22/18  5:50a   41.8   41.8   41.2    86   37.9   0.0   ---   0.00   0.0   ---   41.8   41.6   41.6   38.0  30.365  0.00  0.00     0     0.00      0     0.0  0.00   0.0   0.161   0.000   66.7    45   44.7   64.7   8.52  .0758    0.000   213    5    100.0   10 
 4/22/18  6:00a   41.9   42.1   41.8    85   37.7   0.0   ---   0.00   0.0   ---   41.9   41.7   41.7   38.1  30.370  0.00  0.00     0     0.00      0     0.0  0.00   0.0   0.160   0.000   66.7    45   44.7   64.7   8.52  .0758    0.000   213    5    100.0   10 
 4/22/18  6:10a   41.8   41.9   41.7    86   37.9   0.0   ---   0.00   0.0   ---   41.8   41.6   41.6   38.0  30.370  0.00  0.00     0     0.00      0     0.0  0.00   0.0   0.161   0.000   66.6    45   44.6   64.6   8.52  .0758    0.000   208    5    100.0   10 
 4/22/18  6:20a   41.2   41.8   41.2    86   37.3   0.0   ---   0.00   0.0   ---   41.2   41.0   41.0   37.4  30.368  0.00  0.00     2     0.03      5     0.0  0.00   0.0   0.165   0.000   66.5    45   44.5   64.5   8.52  .0758    0.000   211    5    100.0   10 
 4/22/18  6:30a   41.1   41.2   41.0    87   37.5   0.0   ---   0.00   0.0   ---   41.1   40.9   40.9   37.5  30.371  0.00  0.00    10     0.14     14     0.0  0.00   0.0   0.166   0.000   66.5    45   44.5   64.5   8.52  .0758    0.000   213    5    100.0   10 
 4/22/18  6:40a   42.2   42.2   41.1    88   38.9   0.0   ---   0.00   0.0   ---   42.2   42.1   42.1   38.9  30.372  0.00  0.00    18     0.26     21     0.0  0.00   0.0   0.158   0.000   66.4    45   44.4   64.4   8.52  .0758    0.000   210    5    100.0   10 
Email: AdamSPAM@StormwatchersRetreat.com (To send me email remove the word 'SPAM' from my email address.)